Thursday, May 05, 2016
06:45 UTC
  |  Log In   |  Register Free
Airport Search:

Laguardia Airport
(KLGA)

FAA data valid effective Mar 31 2016 - May 26 2016 (unless otherwise noted).

 
 
 
 
 
 
 
 
 
 
 
 
 
 
Current Aviation Weather for KLGA

Weather Summary


The most recent METAR observation for LGA was updated at: 12:51 UTC
METAR for KLGA is not available. Closest METAR is for KJFK
KLGA  (most recent observation was updatred at 50:55 UTC)
050551Z 04011G18KT 10SM OVC017 09/07 A2972 RMK AO2 SLP064 T00940072 10122 20094 58007 $

KJFK  (9.3 nm NW)   (most recent observation was updated at 50:55 UTC)
050551Z 03011KT 10SM FEW014 BKN027 OVC035 09/06 A2972 RMK AO2 SLP065 T00890056 10100 20089 58008 $

KTEB  (9.6 nm SE)   (most recent observation was updated at 50:55 UTC)
050551Z 03005KT 10SM OVC017 09/05 A2973 RMK AO2 SLP066 60000 T00940050 10106 20094 58005 $

TAF for KLGA is not available.
KLGA
050529Z 0506/0606 06012G16KT P6SM SCT010 OVC015 FM050800 06012G17KT P6SM BKN010 OVC015 FM051200 03013G21KT P6SM BKN010 OVC015 FM051400 03015G22KT P6SM SCT010 OVC015 FM060000 03012KT 5SM BR SCT007 OVC015

KJFK  (9.3 nm NW)   (most recent observation was updatred at 50:52 UTC)
050529Z 0506/0612 04011G15KT P6SM FEW008 OVC013 FM050800 04012G17KT P6SM SCT008 OVC010 FM051300 03014G22KT P6SM SCT008 OVC015 FM060000 03010KT P6SM SCT007 OVC015 FM060600 04008KT 5SM -RA BR SCT007 OVC010


KTEB  (9.6 nm SE)   (most recent observation was updatred at 50:52 UTC)
050529Z 0506/0606 36006KT P6SM FEW009 SCT012 OVC020 TEMPO 0508/0512 SCT008 BKN012 FM051200 04010G15KT P6SM SCT009 OVC015 FM051400 04012G18KT P6SM OVC015 FM052200 03009KT P6SM OVC015
GlobalAir.com is loading additional information.
 Current Weather at LGA
50.0 F° (10.0 C°)

Northeast winds at 16.1 mph
Pressure:
29.74 in
Humidity:
86%
Wind:
Northeast at 16.1 mph
Dew Point:
46.0 F° (7.8 C°)
Visibility:
10.00 mi
LGA NOAA Radar




Find All Airport Services Find A Hotel Find A Rental Car Find A Golf Course Find A Restaurant $100 Hamburger



Airport Weather Forecast for KLGA

Translated METAR for KLGA (0551 UTC)
METAR:
KLGA 050551Z 04011G18KT 10SM OVC017 09/07 A2972 RMK AO2 SLP064 T00940072 10122 20094 58007 $
Conditions at:
KLGA (Laguardia, NY) observed 0551 UTC 05 May 2016
Temperature:
9°C (48.2°F)
Dewpoint:
7°C (44.6°F) [RH = 87.3]
Pressure:
29.72 inches Hg (1006.4 mb)
pressure at sea level is 64 in Hg
Winds:
from the NE (040 degrees) at 12.7 mph (11 knots: 5.7 m/s)
gusting to 20.7 mph (18 knots: 9.3 m/s)
Visibility:
10 mile(s)
Ceiling:
1,700 feet AGL
Clouds:
Overcast Skies at 1,700 feet AGL
Remarks:
SOME DATA ABOVE MAY BE INACCURATE!!!
"$" is an indication the sensor requires maintenance
site is automated and HAS a precipitation sensor

Translated TAF for KLGA (Laguardia, NY) (0529 UTC)
TAF text:
KLGA 050529Z 0506/0606 06012G16KT P6SM SCT010 OVC015
Forecast period:
Thursday May 05 2016 06:00 UTC - Friday May 06 2016 06:00 UTC
Forecast type:
FROM: standard forecast or significant change
Winds:
from the ENE (060 degrees) at 13.8 mph (12 knots: 6.2 m/s)
gusting to 18.4 mph (16 knots: 8.2 m/s)
Visibility:
6 or more mile(s) (9.7+ km)
Ceiling:
1,500 feet AGL
Clouds:
Scattered Clouds at 1,000 feet AGL
Overcast Skies at 1,500 feet AGL
Weather:
no significant weather observed at this time
TAF text:
FM050800 06012G17KT P6SM BKN010 OVC015
Forecast period:
Thursday May 05 2016 08:00 UTC - Thursday May 05 2016 12:00 UTC
Forecast type:
FROM: standard forecast or significant change
Winds:
from the ENE (060 degrees) at 13.8 mph (12 knots: 6.2 m/s)
gusting to 19.6 mph (17 knots: 8.7 m/s)
Visibility:
6 or more mile(s) (9.7+ km)
Ceiling:
1,000 feet AGL
Clouds:
Broken Cloud Cover at 1,000 feet AGL
Overcast Skies at 1,500 feet AGL
Weather:
no significant weather observed at this time
TAF text:
FM051200 03013G21KT P6SM BKN010 OVC015
Forecast period:
Thursday May 05 2016 12:00 UTC - Thursday May 05 2016 14:00 UTC
Forecast type:
FROM: standard forecast or significant change
Winds:
from the NNE (030 degrees) at 15 mph (13 knots: 6.7 m/s)
gusting to 24.2 mph (21 knots: 10.8 m/s)
Visibility:
6 or more mile(s) (9.7+ km)
Ceiling:
1,000 feet AGL
Clouds:
Broken Cloud Cover at 1,000 feet AGL
Overcast Skies at 1,500 feet AGL
Weather:
no significant weather observed at this time
TAF text:
FM051400 03015G22KT P6SM SCT010 OVC015
Forecast period:
Thursday May 05 2016 14:00 UTC - Friday May 06 2016 00:00 UTC
Forecast type:
FROM: standard forecast or significant change
Winds:
from the NNE (030 degrees) at 17.3 mph (15 knots: 7.7 m/s)
gusting to 25.3 mph (22 knots: 11.3 m/s)
Visibility:
6 or more mile(s) (9.7+ km)
Ceiling:
1,500 feet AGL
Clouds:
Scattered Clouds at 1,000 feet AGL
Overcast Skies at 1,500 feet AGL
Weather:
no significant weather observed at this time
TAF text:
FM060000 03012KT 5SM BR SCT007 OVC015
Forecast period:
Friday May 06 2016 00:00 UTC - Friday May 06 2016 06:00 UTC
Forecast type:
FROM: standard forecast or significant change
Winds:
from the NNE (030 degrees) at 13.8 mph (12 knots: 6.2 m/s)
Visibility:
5 mile(s) (8 km)
Ceiling:
1,500 feet AGL
Clouds:
Scattered Clouds at 700 feet AGL
Overcast Skies at 1,500 feet AGL
Weather:
Moderate Mist
FBO's on the Field
FBO Company Facility Photos Services Transportation Aviation Fuel Prices: Prices include tax
Catering Weather Repair Courtesy Rental Type 100LL JetA JetA+ MOGAS 8087
 
Sheltair

This FBO has not yet been rated
FS:Avfuel
Last Updated: Apr-01
Login to update fuel prices
SS:
Contact SheltairMore FBO Information
 
Add another FBO Facility Photos Catering Weather Repair Courtesy Rental Type 100LL JetA JetA+ MOGAS 8087
Services Transportation Aviation Fuel Prices: Prices include tax


model-print
model-print
model-print
model-print